Time,TemperatureF,DewpointF,PressureIn,WindDirection,WindDirectionDegrees,WindSpeedMPH,WindSpeedGustMPH,Humidity,HourlyPrecipIn,Conditions,Clouds,dailyrainin,SoftwareType,DateUTC
2013-07-12 00:02:00,66.9,61.6,30.06,NE,44,0.0,0.0,83,0.00,,SKC,0.00,VWS V13.01,2013-07-12 05:02:00,
2013-07-12 00:07:00,66.8,61.5,30.06,NE,44,0.0,0.0,83,0.00,,SKC,0.00,VWS V13.01,2013-07-12 05:07:00,
2013-07-12 00:12:00,66.7,61.4,30.06,NE,44,0.0,0.0,83,0.00,,SKC,0.00,VWS V13.01,2013-07-12 05:12:00,
2013-07-12 00:17:00,66.5,61.2,30.06,NE,44,0.0,0.0,83,0.00,,SKC,0.00,VWS V13.01,2013-07-12 05:17:00,
2013-07-12 00:22:00,66.4,61.4,30.06,NE,44,0.0,0.0,84,0.00,,SKC,0.00,VWS V13.01,2013-07-12 05:22:00,
2013-07-12 00:27:00,66.3,61.3,30.06,NE,44,0.0,0.0,84,0.00,,SKC,0.00,VWS V13.01,2013-07-12 05:27:00,
2013-07-12 00:32:00,66.1,61.1,30.06,NE,44,0.0,0.0,84,0.00,,SKC,0.00,VWS V13.01,2013-07-12 05:32:00,
2013-07-12 00:37:00,66.0,61.4,30.06,NE,44,0.0,0.0,85,0.00,,SKC,0.00,VWS V13.01,2013-07-12 05:37:00,
2013-07-12 00:42:00,65.8,61.2,30.06,NE,44,0.0,0.0,85,0.00,,SKC,0.00,VWS V13.01,2013-07-12 05:42:00,
2013-07-12 00:47:00,65.7,61.1,30.06,NE,44,0.0,0.0,85,0.00,,SKC,0.00,VWS V13.01,2013-07-12 05:47:00,
2013-07-12 00:52:00,65.6,61.3,30.06,NE,44,0.0,0.0,86,0.00,,SKC,0.00,VWS V13.01,2013-07-12 05:52:00,
2013-07-12 00:57:00,65.5,61.2,30.06,NE,44,0.0,0.0,86,0.00,,SKC,0.00,VWS V13.01,2013-07-12 05:57:00,
2013-07-12 01:02:00,65.4,61.1,30.06,NE,44,0.0,0.0,86,0.00,,SKC,0.00,VWS V13.01,2013-07-12 06:02:00,
2013-07-12 01:07:00,65.3,61.0,30.07,NE,44,0.0,0.0,86,0.00,,SKC,0.00,VWS V13.01,2013-07-12 06:07:00,
2013-07-12 01:12:00,65.2,60.9,30.07,NE,44,0.0,0.0,86,0.00,,SKC,0.00,VWS V13.01,2013-07-12 06:12:00,
2013-07-12 01:17:00,65.1,61.1,30.07,NE,44,0.0,0.0,87,0.00,,SKC,0.00,VWS V13.01,2013-07-12 06:17:00,
2013-07-12 01:22:00,65.1,61.1,30.07,NE,44,0.0,0.0,87,0.00,,SKC,0.00,VWS V13.01,2013-07-12 06:22:00,
2013-07-12 01:27:00,65.0,61.0,30.07,NE,44,0.0,0.0,87,0.00,,SKC,0.00,VWS V13.01,2013-07-12 06:27:00,
2013-07-12 01:32:00,65.0,61.0,30.07,NE,44,0.0,0.0,87,0.00,,SKC,0.00,VWS V13.01,2013-07-12 06:32:00,
2013-07-12 01:37:00,64.9,60.9,30.07,NE,44,0.0,0.0,87,0.00,,SKC,0.00,VWS V13.01,2013-07-12 06:37:00,
2013-07-12 01:42:00,64.8,61.2,30.07,NE,44,0.0,0.0,88,0.00,,SKC,0.00,VWS V13.01,2013-07-12 06:42:00,
2013-07-12 01:47:00,64.9,61.3,30.07,NE,44,0.0,0.0,88,0.00,,SKC,0.00,VWS V13.01,2013-07-12 06:47:00,
2013-07-12 01:52:00,64.8,61.2,30.07,NE,44,0.0,0.0,88,0.00,,SKC,0.00,VWS V13.01,2013-07-12 06:52:00,
2013-07-12 01:57:00,64.8,61.2,30.07,NE,44,0.0,0.0,88,0.00,,SKC,0.00,VWS V13.01,2013-07-12 06:57:00,
2013-07-12 02:02:00,64.8,61.2,30.07,NE,44,0.0,0.0,88,0.00,,SKC,0.00,VWS V13.01,2013-07-12 07:02:00,
2013-07-12 02:07:00,64.8,61.2,30.07,NE,44,0.0,0.0,88,0.00,,SKC,0.00,VWS V13.01,2013-07-12 07:07:00,
2013-07-12 02:12:00,64.9,61.3,30.07,NE,44,0.0,0.0,88,0.00,,SKC,0.00,VWS V13.01,2013-07-12 07:12:00,
2013-07-12 02:17:00,64.9,61.3,30.07,NE,44,0.0,0.0,88,0.00,,SKC,0.00,VWS V13.01,2013-07-12 07:17:00,
2013-07-12 02:22:00,65.0,61.4,30.07,NE,44,0.0,0.0,88,0.00,,SKC,0.00,VWS V13.01,2013-07-12 07:22:00,
2013-07-12 02:27:00,65.0,61.4,30.07,NE,44,0.0,0.0,88,0.00,,SKC,0.00,VWS V13.01,2013-07-12 07:27:00,
2013-07-12 02:32:00,65.2,61.6,30.07,NE,44,0.0,0.0,88,0.00,,SKC,0.00,VWS V13.01,2013-07-12 07:32:00,
2013-07-12 02:37:00,65.6,62.0,30.07,NE,44,0.0,0.0,88,0.00,,SKC,0.00,VWS V13.01,2013-07-12 07:37:00,
2013-07-12 02:42:00,66.0,62.3,30.07,NE,44,0.0,1.0,88,0.00,,SKC,0.00,VWS V13.01,2013-07-12 07:42:00,
2013-07-12 02:47:00,66.2,62.2,30.07,NE,44,0.0,0.0,87,0.00,,SKC,0.00,VWS V13.01,2013-07-12 07:47:00,
2013-07-12 02:52:00,66.3,62.3,30.07,NE,44,0.0,0.0,87,0.00,,SKC,0.00,VWS V13.01,2013-07-12 07:52:00,
2013-07-12 02:57:00,66.4,62.1,30.07,NE,44,0.0,0.0,86,0.00,,SKC,0.00,VWS V13.01,2013-07-12 07:57:00,
2013-07-12 03:02:00,66.5,62.2,30.07,NE,44,0.0,0.0,86,0.00,,SKC,0.00,VWS V13.01,2013-07-12 08:02:00,
2013-07-12 03:07:00,66.4,62.1,30.07,NE,44,0.0,0.0,86,0.00,,SKC,0.00,VWS V13.01,2013-07-12 08:07:00,
2013-07-12 03:12:00,66.3,62.0,30.07,NE,44,0.0,0.0,86,0.00,,SKC,0.00,VWS V13.01,2013-07-12 08:12:00,
2013-07-12 03:17:00,66.1,61.8,30.07,NE,44,0.0,0.0,86,0.00,,SKC,0.00,VWS V13.01,2013-07-12 08:17:00,
2013-07-12 03:22:00,65.9,61.6,30.07,NE,44,0.0,0.0,86,0.00,,SKC,0.00,VWS V13.01,2013-07-12 08:22:00,
2013-07-12 03:27:00,65.7,61.4,30.07,NE,44,0.0,0.0,86,0.00,,SKC,0.00,VWS V13.01,2013-07-12 08:27:00,
2013-07-12 03:32:00,65.5,61.2,30.08,NE,44,0.0,0.0,86,0.00,,SKC,0.00,VWS V13.01,2013-07-12 08:32:00,
2013-07-12 03:37:00,65.2,61.2,30.08,NE,44,0.0,0.0,87,0.00,,SKC,0.00,VWS V13.01,2013-07-12 08:37:00,
2013-07-12 03:42:00,65.0,61.0,30.08,NE,44,0.0,0.0,87,0.00,,SKC,0.00,VWS V13.01,2013-07-12 08:42:00,
2013-07-12 03:47:00,64.8,61.2,30.08,NE,44,0.0,0.0,88,0.00,,SKC,0.00,VWS V13.01,2013-07-12 08:47:00,
2013-07-12 03:52:00,64.6,61.0,30.08,NE,44,0.0,0.0,88,0.00,,SKC,0.00,VWS V13.01,2013-07-12 08:52:00,
2013-07-12 03:57:00,64.4,61.1,30.08,NE,44,0.0,0.0,89,0.00,,SKC,0.00,VWS V13.01,2013-07-12 08:57:00,
2013-07-12 04:02:00,64.3,61.0,30.08,NE,44,0.0,0.0,89,0.00,,SKC,0.00,VWS V13.01,2013-07-12 09:02:00,
2013-07-12 04:07:00,64.1,60.8,30.08,NE,44,0.0,0.0,89,0.00,,SKC,0.00,VWS V13.01,2013-07-12 09:07:00,
2013-07-12 04:12:00,63.9,60.6,30.08,NE,44,0.0,0.0,89,0.00,,SKC,0.00,VWS V13.01,2013-07-12 09:12:00,
2013-07-12 04:17:00,63.8,60.5,30.08,NE,44,0.0,0.0,89,0.00,,SKC,0.00,VWS V13.01,2013-07-12 09:17:00,
2013-07-12 04:22:00,63.7,60.7,30.09,NE,44,0.0,0.0,90,0.00,,SKC,0.00,VWS V13.01,2013-07-12 09:22:00,
2013-07-12 04:27:00,63.6,60.6,30.09,NE,44,0.0,0.0,90,0.00,,SKC,0.00,VWS V13.01,2013-07-12 09:27:00,
2013-07-12 04:32:00,63.4,60.4,30.09,NE,44,0.0,0.0,90,0.00,,SKC,0.00,VWS V13.01,2013-07-12 09:32:00,
2013-07-12 04:37:00,63.4,60.7,30.09,NE,44,0.0,0.0,91,0.00,,SKC,0.00,VWS V13.01,2013-07-12 09:37:00,
2013-07-12 04:42:00,63.3,60.6,30.09,NE,44,0.0,0.0,91,0.00,,SKC,0.00,VWS V13.01,2013-07-12 09:42:00,
2013-07-12 04:47:00,63.3,60.6,30.09,NE,44,0.0,0.0,91,0.00,,SKC,0.00,VWS V13.01,2013-07-12 09:47:00,
2013-07-12 04:52:00,63.2,60.5,30.09,NE,44,0.0,0.0,91,0.00,,SKC,0.00,VWS V13.01,2013-07-12 09:52:00,
2013-07-12 04:57:00,63.2,60.5,30.09,NE,44,0.0,0.0,91,0.00,,SKC,0.00,VWS V13.01,2013-07-12 09:57:00,
2013-07-12 05:02:00,63.3,60.6,30.09,NE,44,0.0,0.0,91,0.00,,SKC,0.00,VWS V13.01,2013-07-12 10:02:00,
2013-07-12 05:07:00,63.5,60.8,30.09,NE,44,0.0,0.0,91,0.00,,SKC,0.00,VWS V13.01,2013-07-12 10:07:00,
2013-07-12 05:12:00,63.8,60.8,30.09,NE,44,0.0,0.0,90,0.00,,SKC,0.00,VWS V13.01,2013-07-12 10:12:00,
2013-07-12 05:17:00,63.9,60.9,30.09,NE,44,0.0,0.0,90,0.00,,SKC,0.00,VWS V13.01,2013-07-12 10:17:00,
2013-07-12 05:22:00,64.0,61.0,30.09,NE,44,0.0,1.0,90,0.00,,SKC,0.00,VWS V13.01,2013-07-12 10:22:00,
2013-07-12 05:27:00,64.2,60.9,30.09,NE,44,0.0,0.0,89,0.00,,SKC,0.00,VWS V13.01,2013-07-12 10:27:00,
2013-07-12 05:32:00,64.3,61.0,30.09,NE,44,0.0,0.0,89,0.00,,SKC,0.00,VWS V13.01,2013-07-12 10:32:00,
2013-07-12 05:37:00,64.2,60.6,30.09,NE,44,0.0,0.0,88,0.00,,SKC,0.00,VWS V13.01,2013-07-12 10:37:00,
2013-07-12 05:42:00,64.2,60.6,30.10,NE,44,0.0,0.0,88,0.00,,SKC,0.00,VWS V13.01,2013-07-12 10:42:00,
2013-07-12 05:47:00,64.2,60.6,30.10,NE,44,0.0,0.0,88,0.00,,SKC,0.00,VWS V13.01,2013-07-12 10:47:00,
2013-07-12 05:52:00,64.1,60.5,30.10,NE,44,0.0,0.0,88,0.00,,SKC,0.00,VWS V13.01,2013-07-12 10:52:00,
2013-07-12 05:57:00,64.0,60.4,30.10,NE,44,0.0,0.0,88,0.00,,SKC,0.00,VWS V13.01,2013-07-12 10:57:00,
2013-07-12 06:02:00,63.8,60.2,30.10,NE,44,0.0,0.0,88,0.00,,SKC,0.00,VWS V13.01,2013-07-12 11:02:00,
2013-07-12 06:07:00,63.7,60.1,30.10,NE,44,0.0,0.0,88,0.00,,SKC,0.00,VWS V13.01,2013-07-12 11:07:00,
2013-07-12 06:12:00,63.7,60.1,30.10,NE,44,0.0,0.0,88,0.00,,SKC,0.00,VWS V13.01,2013-07-12 11:12:00,
2013-07-12 06:17:00,63.6,60.0,30.10,NE,44,0.0,0.0,88,0.00,,SKC,0.00,VWS V13.01,2013-07-12 11:17:00,
2013-07-12 06:22:00,63.6,60.0,30.10,NE,44,0.0,1.0,88,0.00,,SKC,0.00,VWS V13.01,2013-07-12 11:22:00,
2013-07-12 06:27:00,63.6,60.0,30.10,NE,44,0.0,0.0,88,0.00,,SKC,0.00,VWS V13.01,2013-07-12 11:27:00,
2013-07-12 06:32:00,63.5,59.9,30.10,NE,44,0.0,0.0,88,0.00,,SKC,0.00,VWS V13.01,2013-07-12 11:32:00,
2013-07-12 06:37:00,63.6,60.0,30.10,NE,44,0.0,0.0,88,0.00,,SKC,0.00,VWS V13.01,2013-07-12 11:37:00,
2013-07-12 06:42:00,63.6,60.0,30.11,NE,44,0.0,0.0,88,0.00,,SKC,0.00,VWS V13.01,2013-07-12 11:42:00,
2013-07-12 06:47:00,63.6,60.0,30.11,NE,44,0.0,0.0,88,0.00,,SKC,0.00,VWS V13.01,2013-07-12 11:47:00,
2013-07-12 06:52:00,63.8,60.2,30.11,NE,44,0.0,0.0,88,0.00,,SKC,0.00,VWS V13.01,2013-07-12 11:52:00,
2013-07-12 06:57:00,64.0,60.1,30.11,NE,44,0.0,0.0,87,0.00,,SKC,0.00,VWS V13.01,2013-07-12 11:57:00,
2013-07-12 07:02:00,64.3,60.3,30.11,NE,44,0.0,0.0,87,0.00,,SKC,0.00,VWS V13.01,2013-07-12 12:02:00,
2013-07-12 07:07:00,64.8,60.5,30.11,NE,44,0.0,0.0,86,0.00,,SKC,0.00,VWS V13.01,2013-07-12 12:07:00,
2013-07-12 07:12:00,65.1,60.5,30.11,NE,44,0.0,0.0,85,0.00,,SKC,0.00,VWS V13.01,2013-07-12 12:12:00,
2013-07-12 07:17:00,65.4,60.8,30.11,NE,44,0.0,0.0,85,0.00,,SKC,0.00,VWS V13.01,2013-07-12 12:17:00,
2013-07-12 07:22:00,65.7,60.7,30.10,NE,44,0.0,0.0,84,0.00,,SKC,0.00,VWS V13.01,2013-07-12 12:22:00,
2013-07-12 07:27:00,66.1,60.8,30.11,NE,44,0.0,0.0,83,0.00,,SKC,0.00,VWS V13.01,2013-07-12 12:27:00,
2013-07-12 07:32:00,66.5,61.2,30.11,NE,44,0.0,1.0,83,0.00,,SKC,0.00,VWS V13.01,2013-07-12 12:32:00,
2013-07-12 07:37:00,66.8,61.1,30.11,NE,44,0.0,1.0,82,0.00,,SKC,0.00,VWS V13.01,2013-07-12 12:37:00,
2013-07-12 07:42:00,67.1,61.1,30.11,NE,44,0.0,1.0,81,0.00,,SKC,0.00,VWS V13.01,2013-07-12 12:42:00,
2013-07-12 07:47:00,67.3,61.3,30.11,NE,44,0.0,0.0,81,0.00,,SKC,0.00,VWS V13.01,2013-07-12 12:47:00,
2013-07-12 07:52:00,67.6,61.6,30.11,NE,44,0.0,0.0,81,0.00,,SKC,0.00,VWS V13.01,2013-07-12 12:52:00,
2013-07-12 07:57:00,67.9,61.5,30.11,NE,44,0.0,0.0,80,0.00,,SKC,0.00,VWS V13.01,2013-07-12 12:57:00,
2013-07-12 08:02:00,68.1,61.7,30.12,NE,44,0.0,1.0,80,0.00,,SKC,0.00,VWS V13.01,2013-07-12 13:02:00,
2013-07-12 08:07:00,68.3,61.9,30.12,NE,44,0.0,0.0,80,0.00,,SKC,0.00,VWS V13.01,2013-07-12 13:07:00,
2013-07-12 08:12:00,68.6,61.8,30.12,NE,44,0.0,1.0,79,0.00,,SKC,0.00,VWS V13.01,2013-07-12 13:12:00,
2013-07-12 08:17:00,69.0,61.5,30.12,NE,44,0.0,0.0,77,0.00,,SKC,0.00,VWS V13.01,2013-07-12 13:17:00,
2013-07-12 08:22:00,69.3,61.8,30.12,NE,44,0.0,0.0,77,0.00,,SKC,0.00,VWS V13.01,2013-07-12 13:22:00,
2013-07-12 08:27:00,69.6,62.1,30.12,NE,44,0.0,1.0,77,0.00,,SKC,0.00,VWS V13.01,2013-07-12 13:27:00,
2013-07-12 08:32:00,69.9,62.0,30.12,NE,44,0.0,3.0,76,0.00,,SKC,0.00,VWS V13.01,2013-07-12 13:32:00,
2013-07-12 08:37:00,70.3,62.0,30.13,NNE,19,3.0,3.0,75,0.00,,SKC,0.00,VWS V13.01,2013-07-12 13:37:00,
2013-07-12 08:42:00,70.6,61.9,30.13,NNE,24,0.0,5.0,74,0.00,,SKC,0.00,VWS V13.01,2013-07-12 13:42:00,
2013-07-12 08:47:00,70.9,61.8,30.12,NNE,27,0.0,3.0,73,0.00,,SKC,0.00,VWS V13.01,2013-07-12 13:47:00,
2013-07-12 08:52:00,71.2,61.7,30.12,NNE,28,0.0,3.0,72,0.00,,SKC,0.00,VWS V13.01,2013-07-12 13:52:00,
2013-07-12 08:57:00,71.4,61.9,30.12,NNE,31,0.0,6.0,72,0.00,,SKC,0.00,VWS V13.01,2013-07-12 13:57:00,
2013-07-12 09:02:00,71.7,61.8,30.13,NNE,31,0.0,6.0,71,0.00,,SKC,0.00,VWS V13.01,2013-07-12 14:02:00,
2013-07-12 09:07:00,71.8,61.9,30.13,NNE,29,1.0,1.0,71,0.00,,SKC,0.00,VWS V13.01,2013-07-12 14:07:00,
2013-07-12 09:12:00,72.1,62.2,30.13,NNE,29,0.0,3.0,71,0.00,,SKC,0.00,VWS V13.01,2013-07-12 14:12:00,
2013-07-12 09:17:00,72.4,62.5,30.13,NNE,30,0.0,1.0,71,0.00,,SKC,0.00,VWS V13.01,2013-07-12 14:17:00,
2013-07-12 09:22:00,72.7,62.0,30.12,NNE,30,0.0,1.0,69,0.00,,SKC,0.00,VWS V13.01,2013-07-12 14:22:00,
2013-07-12 09:27:00,72.9,61.7,30.12,East,80,0.0,1.0,68,0.00,,SKC,0.00,VWS V13.01,2013-07-12 14:27:00,
2013-07-12 09:32:00,73.1,61.5,30.12,ENE,74,0.0,2.0,67,0.00,,SKC,0.00,VWS V13.01,2013-07-12 14:32:00,
2013-07-12 09:37:00,73.3,61.7,30.13,ENE,74,0.0,0.0,67,0.00,,SKC,0.00,VWS V13.01,2013-07-12 14:37:00,
2013-07-12 09:42:00,73.5,61.9,30.12,ENE,74,0.0,1.0,67,0.00,,SKC,0.00,VWS V13.01,2013-07-12 14:42:00,
2013-07-12 09:47:00,73.8,62.2,30.12,ENE,72,0.0,3.0,67,0.00,,SKC,0.00,VWS V13.01,2013-07-12 14:47:00,
2013-07-12 09:52:00,74.1,62.0,30.12,North,9,3.0,7.0,66,0.00,,SKC,0.00,VWS V13.01,2013-07-12 14:52:00,
2013-07-12 09:57:00,74.3,61.8,30.12,NNE,26,0.0,3.0,65,0.00,,SKC,0.00,VWS V13.01,2013-07-12 14:57:00,
2013-07-12 10:02:00,74.5,61.5,30.12,NE,53,0.0,5.0,64,0.00,,SKC,0.00,VWS V13.01,2013-07-12 15:02:00,
2013-07-12 10:07:00,74.7,62.2,30.12,ESE,114,0.0,0.0,65,0.00,,SKC,0.00,VWS V13.01,2013-07-12 15:07:00,
2013-07-12 10:12:00,75.1,62.1,30.12,SE,129,0.0,2.0,64,0.00,,SKC,0.00,VWS V13.01,2013-07-12 15:12:00,
2013-07-12 10:17:00,75.2,61.3,30.13,SE,130,0.0,1.0,62,0.00,,SKC,0.00,VWS V13.01,2013-07-12 15:17:00,
2013-07-12 10:21:00,75.3,61.4,30.13,North,11,5.0,7.0,62,0.00,,SKC,0.00,VWS V13.01,2013-07-12 15:21:00,
2013-07-12 10:26:00,75.3,60.9,30.13,NNE,12,0.0,1.0,61,0.00,,SKC,0.00,VWS V13.01,2013-07-12 15:26:00,
2013-07-12 10:31:00,75.3,60.5,30.13,ENE,59,0.0,7.0,60,0.00,,SKC,0.00,VWS V13.01,2013-07-12 15:31:00,
2013-07-12 10:36:00,75.6,59.3,30.13,South,171,0.0,2.0,57,0.00,,SKC,0.00,VWS V13.01,2013-07-12 15:36:00,
2013-07-12 10:41:00,76.2,61.8,30.13,South,171,0.0,2.0,61,0.00,,SKC,0.00,VWS V13.01,2013-07-12 15:41:00,
2013-07-12 10:46:00,77.1,60.7,30.13,South,171,0.0,1.0,57,0.00,,SKC,0.00,VWS V13.01,2013-07-12 15:46:00,
2013-07-12 10:51:00,77.5,60.6,30.13,South,171,0.0,1.0,56,0.00,,SKC,0.00,VWS V13.01,2013-07-12 15:51:00,
2013-07-12 10:56:00,78.0,60.5,30.13,South,171,0.0,1.0,55,0.00,,SKC,0.00,VWS V13.01,2013-07-12 15:56:00,
2013-07-12 11:01:00,78.4,61.4,30.12,South,180,0.0,4.0,56,0.00,,SKC,0.00,VWS V13.01,2013-07-12 16:01:00,
2013-07-12 11:06:00,78.7,61.2,30.12,South,180,1.0,2.0,55,0.00,,SKC,0.00,VWS V13.01,2013-07-12 16:06:00,
2013-07-12 11:11:00,78.7,61.7,30.12,South,179,0.0,2.0,56,0.00,,SKC,0.00,VWS V13.01,2013-07-12 16:11:00,
2013-07-12 11:16:00,78.7,60.7,30.12,South,176,0.0,1.0,54,0.00,,SKC,0.00,VWS V13.01,2013-07-12 16:16:00,
2013-07-12 11:21:00,78.7,61.2,30.12,South,176,0.0,1.0,55,0.00,,SKC,0.00,VWS V13.01,2013-07-12 16:21:00,
2013-07-12 11:26:00,78.9,61.4,30.12,South,176,0.0,1.0,55,0.00,,SKC,0.00,VWS V13.01,2013-07-12 16:26:00,
2013-07-12 11:31:00,79.3,62.3,30.12,South,176,0.0,1.0,56,0.00,,SKC,0.00,VWS V13.01,2013-07-12 16:31:00,
2013-07-12 11:36:00,80.1,62.5,30.12,South,176,0.0,1.0,55,0.00,,SKC,0.00,VWS V13.01,2013-07-12 16:36:00,
2013-07-12 11:41:00,80.0,61.3,30.12,NE,45,0.0,6.0,53,0.00,,SKC,0.00,VWS V13.01,2013-07-12 16:41:00,
2013-07-12 11:46:00,79.3,59.6,30.12,NNE,28,3.0,7.0,51,0.00,,SKC,0.00,VWS V13.01,2013-07-12 16:46:00,
2013-07-12 11:52:00,78.8,60.8,30.12,NNE,28,1.0,7.0,54,0.00,,SKC,0.00,VWS V13.01,2013-07-12 16:52:00,
2013-07-12 11:57:00,79.1,61.0,30.12,NNE,28,0.0,1.0,54,0.00,,SKC,0.00,VWS V13.01,2013-07-12 16:57:00,
2013-07-12 12:02:00,79.7,60.5,30.12,NNE,28,0.0,4.0,52,0.00,,SKC,0.00,VWS V13.01,2013-07-12 17:02:00,
2013-07-12 12:07:00,80.6,61.4,30.12,NNE,28,1.0,2.0,52,0.00,,SKC,0.00,VWS V13.01,2013-07-12 17:07:00,
2013-07-12 12:12:00,80.9,61.1,30.12,NNE,21,1.0,6.0,51,0.00,,SKC,0.00,VWS V13.01,2013-07-12 17:12:00,
2013-07-12 12:17:00,81.2,60.8,30.11,NNE,22,0.0,2.0,50,0.00,,SKC,0.00,VWS V13.01,2013-07-12 17:17:00,
2013-07-12 12:23:00,80.9,61.1,30.11,NNE,32,3.0,7.0,51,0.00,,SKC,0.00,VWS V13.01,2013-07-12 17:23:00,
2013-07-12 12:28:00,81.5,61.7,30.11,NNE,32,1.0,3.0,51,0.00,,SKC,0.00,VWS V13.01,2013-07-12 17:28:00,
2013-07-12 12:33:00,81.8,60.8,30.11,SSW,195,0.0,4.0,49,0.00,,SKC,0.00,VWS V13.01,2013-07-12 17:33:00,
2013-07-12 12:38:00,82.4,61.3,30.11,South,188,0.0,7.0,49,0.00,,SKC,0.00,VWS V13.01,2013-07-12 17:38:00,
2013-07-12 12:43:00,82.8,61.1,30.11,South,188,0.0,7.0,48,0.00,,SKC,0.00,VWS V13.01,2013-07-12 17:43:00,
2013-07-12 12:49:00,82.3,61.2,30.10,SSW,197,0.0,4.0,49,0.00,,SKC,0.00,VWS V13.01,2013-07-12 17:49:00,
2013-07-12 12:54:00,82.8,61.1,30.10,SSW,196,0.0,4.0,48,0.00,,SKC,0.00,VWS V13.01,2013-07-12 17:54:00,
2013-07-12 12:59:00,83.0,61.3,30.10,SW,223,4.0,6.0,48,0.00,,SKC,0.00,VWS V13.01,2013-07-12 17:59:00,
2013-07-12 13:04:00,82.0,61.0,30.10,NNE,17,0.0,6.0,49,0.00,,SKC,0.00,VWS V13.01,2013-07-12 18:04:00,
2013-07-12 13:09:00,81.6,61.2,30.10,North,360,3.0,7.0,50,0.00,,SKC,0.00,VWS V13.01,2013-07-12 18:09:00,
2013-07-12 13:14:00,81.0,61.7,30.10,North,9,0.0,0.0,52,0.00,,SKC,0.00,VWS V13.01,2013-07-12 18:14:00,
2013-07-12 13:19:00,81.6,61.7,30.10,North,10,0.0,1.0,51,0.00,,SKC,0.00,VWS V13.01,2013-07-12 18:19:00,
2013-07-12 13:25:00,82.6,62.1,30.09,SSW,203,0.0,0.0,50,0.00,,SKC,0.00,VWS V13.01,2013-07-12 18:25:00,
2013-07-12 13:30:00,83.3,62.2,30.10,NNE,28,0.0,5.0,49,0.00,,SKC,0.00,VWS V13.01,2013-07-12 18:30:00,
2013-07-12 13:36:00,82.5,60.8,30.09,NE,45,2.0,3.0,48,0.00,,SKC,0.00,VWS V13.01,2013-07-12 18:36:00,
2013-07-12 13:42:00,81.6,61.2,30.09,NE,38,0.0,7.0,50,0.00,,SKC,0.00,VWS V13.01,2013-07-12 18:42:00,
2013-07-12 13:47:00,81.4,59.8,30.09,NE,44,0.0,5.0,48,0.00,,SKC,0.00,VWS V13.01,2013-07-12 18:47:00,
2013-07-12 13:53:00,81.7,60.1,30.09,NNE,13,3.0,6.0,48,0.00,,SKC,0.00,VWS V13.01,2013-07-12 18:53:00,
2013-07-12 13:58:00,81.8,59.6,30.09,WNW,290,0.0,5.0,47,0.00,,SKC,0.00,VWS V13.01,2013-07-12 18:58:00,
2013-07-12 14:03:00,82.6,59.8,30.08,WNW,292,0.0,5.0,46,0.00,,SKC,0.00,VWS V13.01,2013-07-12 19:03:00,
2013-07-12 14:08:00,83.1,60.2,30.08,NW,323,0.0,2.0,46,0.00,,SKC,0.00,VWS V13.01,2013-07-12 19:08:00,
2013-07-12 14:14:00,84.1,61.1,30.08,WSW,242,0.0,2.0,46,0.00,,SKC,0.00,VWS V13.01,2013-07-12 19:14:00,
2013-07-12 14:19:00,83.9,60.3,30.07,NE,49,0.0,4.0,45,0.00,,SKC,0.00,VWS V13.01,2013-07-12 19:19:00,
2013-07-12 14:25:00,83.0,56.2,30.07,NNE,19,2.0,3.0,40,0.00,,SKC,0.00,VWS V13.01,2013-07-12 19:25:00,
2013-07-12 14:30:00,82.9,59.4,30.08,SSE,158,0.0,6.0,45,0.00,,SKC,0.00,VWS V13.01,2013-07-12 19:30:00,
2013-07-12 14:35:00,82.8,59.3,30.08,NNE,24,0.0,4.0,45,0.00,,SKC,0.00,VWS V13.01,2013-07-12 19:35:00,
2013-07-12 14:40:00,82.7,60.4,30.08,NNE,31,0.0,4.0,47,0.00,,SKC,0.00,VWS V13.01,2013-07-12 19:40:00,
2013-07-12 14:45:00,83.8,62.0,30.08,NNE,31,0.0,1.0,48,0.00,,SKC,0.00,VWS V13.01,2013-07-12 19:45:00,
2013-07-12 14:51:00,84.5,61.5,30.07,NNE,31,1.0,1.0,46,0.00,,SKC,0.00,VWS V13.01,2013-07-12 19:51:00,
2013-07-12 14:56:00,85.0,60.0,30.07,NNE,30,0.0,1.0,43,0.00,,SKC,0.00,VWS V13.01,2013-07-12 19:56:00,
2013-07-12 15:01:00,85.2,60.2,30.07,NNE,30,6.0,6.0,43,0.00,,SKC,0.00,VWS V13.01,2013-07-12 20:01:00,
2013-07-12 15:07:00,84.3,60.0,30.07,NNE,19,5.0,6.0,44,0.00,,SKC,0.00,VWS V13.01,2013-07-12 20:07:00,
2013-07-12 15:12:00,83.0,59.5,30.07,NE,37,2.0,6.0,45,0.00,,SKC,0.00,VWS V13.01,2013-07-12 20:12:00,
2013-07-12 15:17:00,83.0,60.1,30.07,NE,42,2.0,7.0,46,0.00,,SKC,0.00,VWS V13.01,2013-07-12 20:17:00,
2013-07-12 15:22:00,82.6,60.3,30.07,North,355,2.0,7.0,47,0.00,,SKC,0.00,VWS V13.01,2013-07-12 20:22:00,
2013-07-12 15:28:00,82.3,60.7,30.07,NE,49,0.0,10.0,48,0.00,,SKC,0.00,VWS V13.01,2013-07-12 20:28:00,
2013-07-12 15:33:00,82.9,61.2,30.07,NE,50,0.0,10.0,48,0.00,,SKC,0.00,VWS V13.01,2013-07-12 20:33:00,
2013-07-12 15:39:00,84.0,61.6,30.06,NE,50,0.0,3.0,47,0.00,,SKC,0.00,VWS V13.01,2013-07-12 20:39:00,
2013-07-12 15:44:00,85.1,62.6,30.06,SW,232,0.0,4.0,47,0.00,,SKC,0.00,VWS V13.01,2013-07-12 20:44:00,
2013-07-12 15:49:00,85.5,63.0,30.06,NNE,28,0.0,4.0,47,0.00,,SKC,0.00,VWS V13.01,2013-07-12 20:49:00,
2013-07-12 15:54:00,85.1,62.6,30.06,South,171,1.0,4.0,47,0.00,,SKC,0.00,VWS V13.01,2013-07-12 20:54:00,
2013-07-12 15:59:00,85.2,62.1,30.06,South,173,1.0,2.0,46,0.00,,SKC,0.00,VWS V13.01,2013-07-12 20:59:00,
2013-07-12 16:04:00,85.7,62.6,30.06,West,264,2.0,3.0,46,0.00,,SKC,0.00,VWS V13.01,2013-07-12 21:04:00,
2013-07-12 16:09:00,85.9,63.3,30.06,WNW,282,0.0,2.0,47,0.00,,SKC,0.00,VWS V13.01,2013-07-12 21:09:00,
2013-07-12 16:14:00,86.5,62.7,30.06,West,281,0.0,2.0,45,0.00,,SKC,0.00,VWS V13.01,2013-07-12 21:14:00,
2013-07-12 16:19:00,86.8,62.9,30.06,SSE,152,0.0,3.0,45,0.00,,SKC,0.00,VWS V13.01,2013-07-12 21:19:00,
2013-07-12 16:24:00,86.5,63.3,30.06,SSE,152,0.0,3.0,46,0.00,,SKC,0.00,VWS V13.01,2013-07-12 21:24:00,
2013-07-12 16:29:00,87.2,63.3,30.05,SSE,153,0.0,1.0,45,0.00,,SKC,0.00,VWS V13.01,2013-07-12 21:29:00,
2013-07-12 16:35:00,86.5,62.7,30.05,NNE,13,0.0,0.0,45,0.00,,SKC,0.00,VWS V13.01,2013-07-12 21:35:00,
2013-07-12 16:40:00,86.4,63.2,30.05,North,5,0.0,1.0,46,0.00,,SKC,0.00,VWS V13.01,2013-07-12 21:40:00,
2013-07-12 16:45:00,85.3,62.2,30.05,NNE,25,2.0,5.0,46,0.00,,SKC,0.00,VWS V13.01,2013-07-12 21:45:00,
2013-07-12 16:50:00,84.7,62.9,30.05,NNE,28,0.0,5.0,48,0.00,,SKC,0.00,VWS V13.01,2013-07-12 21:50:00,
2013-07-12 16:55:00,84.7,62.3,30.05,NNE,26,0.0,1.0,47,0.00,,SKC,0.00,VWS V13.01,2013-07-12 21:55:00,
2013-07-12 17:01:00,84.9,63.0,30.05,East,101,0.0,3.0,48,0.00,,SKC,0.00,VWS V13.01,2013-07-12 22:01:00,
2013-07-12 17:06:00,85.5,63.6,30.05,ESE,104,0.0,1.0,48,0.00,,SKC,0.00,VWS V13.01,2013-07-12 22:06:00,
2013-07-12 17:11:00,85.3,62.2,30.05,NE,34,2.0,5.0,46,0.00,,SKC,0.00,VWS V13.01,2013-07-12 22:11:00,
2013-07-12 17:16:00,84.2,63.0,30.05,NNE,25,0.0,1.0,49,0.00,,SKC,0.00,VWS V13.01,2013-07-12 22:16:00,
2013-07-12 17:22:00,83.8,62.0,30.04,NNE,24,4.0,6.0,48,0.00,,SKC,0.00,VWS V13.01,2013-07-12 22:22:00,
2013-07-12 17:27:00,83.7,62.0,30.05,North,5,0.0,1.0,48,0.00,,SKC,0.00,VWS V13.01,2013-07-12 22:27:00,
2013-07-12 17:32:00,84.2,61.2,30.04,NNE,25,1.0,4.0,46,0.00,,SKC,0.00,VWS V13.01,2013-07-12 22:32:00,
2013-07-12 17:38:00,83.6,61.3,30.04,NNE,15,2.0,6.0,47,0.00,,SKC,0.00,VWS V13.01,2013-07-12 22:38:00,
2013-07-12 17:43:00,83.7,62.5,30.05,NNE,15,0.0,6.0,49,0.00,,SKC,0.00,VWS V13.01,2013-07-12 22:43:00,
2013-07-12 17:48:00,84.4,62.6,30.04,NNE,15,1.0,2.0,48,0.00,,SKC,0.00,VWS V13.01,2013-07-12 22:48:00,
2013-07-12 17:53:00,84.2,62.4,30.04,NNE,31,0.0,5.0,48,0.00,,SKC,0.00,VWS V13.01,2013-07-12 22:53:00,
2013-07-12 17:59:00,84.0,61.6,30.04,NNE,31,0.0,1.0,47,0.00,,SKC,0.00,VWS V13.01,2013-07-12 22:59:00,
2013-07-12 18:04:00,83.8,62.0,30.05,NE,53,5.0,5.0,48,0.00,,SKC,0.00,VWS V13.01,2013-07-12 23:04:00,
2013-07-12 18:10:00,83.4,61.7,30.04,NNE,25,0.0,6.0,48,0.00,,SKC,0.00,VWS V13.01,2013-07-12 23:10:00,
2013-07-12 18:15:00,83.5,62.3,30.04,NNE,25,0.0,0.0,49,0.00,,SKC,0.00,VWS V13.01,2013-07-12 23:15:00,
2013-07-12 18:20:00,84.0,62.2,30.04,NNE,25,0.0,1.0,48,0.00,,SKC,0.00,VWS V13.01,2013-07-12 23:20:00,
2013-07-12 18:25:00,84.5,62.1,30.04,NNE,25,0.0,1.0,47,0.00,,SKC,0.00,VWS V13.01,2013-07-12 23:25:00,
2013-07-12 18:30:00,84.0,61.6,30.04,NNE,30,2.0,4.0,47,0.00,,SKC,0.00,VWS V13.01,2013-07-12 23:30:00,
2013-07-12 18:36:00,83.4,62.3,30.04,NNE,30,0.0,1.0,49,0.00,,SKC,0.00,VWS V13.01,2013-07-12 23:36:00,
2013-07-12 18:41:00,83.2,61.5,30.04,NNE,30,0.0,4.0,48,0.00,,SKC,0.00,VWS V13.01,2013-07-12 23:41:00,
2013-07-12 18:46:00,83.2,61.5,30.04,NNE,30,0.0,1.0,48,0.00,,SKC,0.00,VWS V13.01,2013-07-12 23:46:00,
2013-07-12 18:51:00,83.2,62.1,30.04,NE,36,2.0,4.0,49,0.00,,SKC,0.00,VWS V13.01,2013-07-12 23:51:00,
2013-07-12 18:56:00,82.9,61.8,30.04,NE,36,0.0,0.0,49,0.00,,SKC,0.00,VWS V13.01,2013-07-12 23:56:00,
2013-07-12 19:02:00,82.9,61.8,30.04,NE,36,0.0,1.0,49,0.00,,SKC,0.00,VWS V13.01,2013-07-13 00:02:00,
2013-07-12 19:07:00,83.0,61.9,30.04,NE,36,0.0,1.0,49,0.00,,SKC,0.00,VWS V13.01,2013-07-13 00:07:00,
2013-07-12 19:12:00,83.1,62.0,30.04,NE,36,0.0,1.0,49,0.00,,SKC,0.00,VWS V13.01,2013-07-13 00:12:00,
2013-07-12 19:17:00,82.7,61.6,30.04,NE,36,0.0,0.0,49,0.00,,SKC,0.00,VWS V13.01,2013-07-13 00:17:00,
2013-07-12 19:22:00,82.1,61.1,30.04,NE,36,0.0,1.0,49,0.00,,SKC,0.00,VWS V13.01,2013-07-13 00:22:00,
2013-07-12 19:27:00,81.6,61.2,30.04,NE,36,0.0,0.0,50,0.00,,SKC,0.00,VWS V13.01,2013-07-13 00:27:00,
2013-07-12 19:32:00,81.3,61.5,30.04,NE,36,0.0,1.0,51,0.00,,SKC,0.00,VWS V13.01,2013-07-13 00:32:00,
2013-07-12 19:37:00,81.0,61.7,30.05,NE,36,0.0,0.0,52,0.00,,SKC,0.00,VWS V13.01,2013-07-13 00:37:00,
2013-07-12 19:42:00,80.8,62.1,30.05,NE,36,0.0,0.0,53,0.00,,SKC,0.00,VWS V13.01,2013-07-13 00:42:00,
2013-07-12 19:47:00,80.5,62.3,30.05,NE,36,0.0,0.0,54,0.00,,SKC,0.00,VWS V13.01,2013-07-13 00:47:00,
2013-07-12 19:53:00,80.2,61.5,30.05,NE,36,0.0,0.0,53,0.00,,SKC,0.00,VWS V13.01,2013-07-13 00:53:00,
2013-07-12 19:58:00,79.9,61.8,30.04,NE,36,0.0,1.0,54,0.00,,SKC,0.00,VWS V13.01,2013-07-13 00:58:00,
2013-07-12 20:03:00,79.6,62.0,30.04,NE,36,0.0,1.0,55,0.00,,SKC,0.00,VWS V13.01,2013-07-13 01:03:00,
2013-07-12 20:08:00,79.3,61.8,30.04,NE,36,0.0,0.0,55,0.00,,SKC,0.00,VWS V13.01,2013-07-13 01:08:00,
2013-07-12 20:14:00,79.0,62.0,30.05,NE,36,0.0,0.0,56,0.00,,SKC,0.00,VWS V13.01,2013-07-13 01:14:00,
2013-07-12 20:19:00,78.7,61.7,30.05,NE,36,0.0,1.0,56,0.00,,SKC,0.00,VWS V13.01,2013-07-13 01:19:00,
2013-07-12 20:24:00,78.5,62.0,30.05,NE,36,0.0,1.0,57,0.00,,SKC,0.00,VWS V13.01,2013-07-13 01:24:00,
2013-07-12 20:29:00,78.2,62.2,30.05,NE,36,0.0,0.0,58,0.00,,SKC,0.00,VWS V13.01,2013-07-13 01:29:00,
2013-07-12 20:34:00,77.8,62.3,30.05,NE,36,0.0,0.0,59,0.00,,SKC,0.00,VWS V13.01,2013-07-13 01:34:00,
2013-07-12 20:40:00,77.4,62.0,30.05,NE,36,0.0,0.0,59,0.00,,SKC,0.00,VWS V13.01,2013-07-13 01:40:00,
2013-07-12 20:45:00,76.9,62.0,30.05,NE,36,0.0,0.0,60,0.00,,SKC,0.00,VWS V13.01,2013-07-13 01:45:00,
2013-07-12 20:50:00,76.5,61.6,30.05,NE,36,0.0,0.0,60,0.00,,SKC,0.00,VWS V13.01,2013-07-13 01:50:00,
2013-07-12 20:55:00,76.1,61.2,30.05,NE,36,0.0,0.0,60,0.00,,SKC,0.00,VWS V13.01,2013-07-13 01:55:00,
2013-07-12 21:00:00,75.8,61.4,30.05,NE,36,0.0,0.0,61,0.00,,SKC,0.00,VWS V13.01,2013-07-13 02:00:00,
2013-07-12 21:06:00,75.6,61.2,30.05,NE,36,0.0,0.0,61,0.00,,SKC,0.00,VWS V13.01,2013-07-13 02:06:00,
2013-07-12 21:11:00,75.3,60.9,30.05,NE,36,0.0,0.0,61,0.00,,SKC,0.00,VWS V13.01,2013-07-13 02:11:00,
2013-07-12 21:16:00,75.0,61.1,30.05,NE,36,0.0,0.0,62,0.00,,SKC,0.00,VWS V13.01,2013-07-13 02:16:00,
2013-07-12 21:22:00,74.8,60.9,30.05,NE,36,0.0,0.0,62,0.00,,SKC,0.00,VWS V13.01,2013-07-13 02:22:00,
2013-07-12 21:27:00,74.6,61.2,30.06,NE,36,0.0,0.0,63,0.00,,SKC,0.00,VWS V13.01,2013-07-13 02:27:00,
2013-07-12 21:32:00,74.3,60.9,30.06,NE,36,0.0,0.0,63,0.00,,SKC,0.00,VWS V13.01,2013-07-13 02:32:00,
2013-07-12 21:37:00,74.0,61.1,30.06,NE,36,0.0,0.0,64,0.00,,SKC,0.00,VWS V13.01,2013-07-13 02:37:00,
2013-07-12 21:42:00,73.7,61.2,30.05,NE,36,0.0,0.0,65,0.00,,SKC,0.00,VWS V13.01,2013-07-13 02:42:00,
2013-07-12 21:47:00,73.4,60.9,30.06,NE,36,0.0,0.0,65,0.00,,SKC,0.00,VWS V13.01,2013-07-13 02:47:00,
2013-07-12 21:52:00,73.1,61.1,30.06,NE,36,0.0,0.0,66,0.00,,SKC,0.00,VWS V13.01,2013-07-13 02:52:00,
2013-07-12 21:57:00,72.9,61.3,30.06,NE,36,0.0,0.0,67,0.00,,SKC,0.00,VWS V13.01,2013-07-13 02:57:00,
2013-07-12 22:02:00,72.6,61.0,30.06,NE,36,0.0,0.0,67,0.00,,SKC,0.00,VWS V13.01,2013-07-13 03:02:00,
2013-07-12 22:07:00,72.4,60.8,30.06,NE,36,0.0,0.0,67,0.00,,SKC,0.00,VWS V13.01,2013-07-13 03:07:00,
2013-07-12 22:12:00,72.1,61.0,30.06,NE,36,0.0,0.0,68,0.00,,SKC,0.00,VWS V13.01,2013-07-13 03:12:00,
2013-07-12 22:17:00,71.8,60.7,30.06,NE,36,0.0,0.0,68,0.00,,SKC,0.00,VWS V13.01,2013-07-13 03:17:00,
2013-07-12 22:23:00,71.6,60.5,30.06,NE,36,0.0,0.0,68,0.00,,SKC,0.00,VWS V13.01,2013-07-13 03:23:00,
2013-07-12 22:28:00,71.5,60.4,30.06,NE,36,0.0,0.0,68,0.00,,SKC,0.00,VWS V13.01,2013-07-13 03:28:00,
2013-07-12 22:33:00,71.3,60.6,30.06,NE,36,0.0,0.0,69,0.00,,SKC,0.00,VWS V13.01,2013-07-13 03:33:00,
2013-07-12 22:38:00,71.3,60.6,30.06,NE,36,0.0,0.0,69,0.00,,SKC,0.00,VWS V13.01,2013-07-13 03:38:00,
2013-07-12 22:43:00,71.0,60.7,30.06,NE,36,0.0,0.0,70,0.00,,SKC,0.00,VWS V13.01,2013-07-13 03:43:00,
2013-07-12 22:48:00,70.8,60.1,30.05,NE,36,0.0,0.0,69,0.00,,SKC,0.00,VWS V13.01,2013-07-13 03:48:00,
2013-07-12 22:53:00,70.7,60.5,30.05,NE,36,0.0,0.0,70,0.00,,SKC,0.00,VWS V13.01,2013-07-13 03:53:00,
2013-07-12 22:58:00,70.5,60.3,30.06,NE,36,0.0,0.0,70,0.00,,SKC,0.00,VWS V13.01,2013-07-13 03:58:00,
2013-07-12 23:01:00,70.5,60.3,30.06,NE,36,0.0,0.0,70,0.00,,SKC,0.00,VWS V13.01,2013-07-13 04:01:00,
2013-07-12 23:02:00,70.4,60.2,30.06,NE,36,0.0,0.0,70,0.00,,SKC,0.00,VWS V13.01,2013-07-13 04:02:00,
2013-07-12 23:07:00,70.3,60.1,30.06,NE,36,0.0,0.0,70,0.00,,SKC,0.00,VWS V13.01,2013-07-13 04:07:00,
2013-07-12 23:12:00,70.1,59.9,30.06,NE,36,0.0,0.0,70,0.00,,SKC,0.00,VWS V13.01,2013-07-13 04:12:00,
2013-07-12 23:17:00,70.0,59.8,30.06,NE,36,0.0,0.0,70,0.00,,SKC,0.00,VWS V13.01,2013-07-13 04:17:00,
2013-07-12 23:22:00,69.8,59.6,30.06,NE,36,0.0,0.0,70,0.00,,SKC,0.00,VWS V13.01,2013-07-13 04:22:00,
2013-07-12 23:27:00,69.7,59.9,30.06,NE,36,0.0,0.0,71,0.00,,SKC,0.00,VWS V13.01,2013-07-13 04:27:00,
2013-07-12 23:32:00,69.5,59.7,30.06,NE,36,0.0,0.0,71,0.00,,SKC,0.00,VWS V13.01,2013-07-13 04:32:00,
2013-07-12 23:37:00,69.4,59.6,30.07,NE,36,0.0,0.0,71,0.00,,SKC,0.00,VWS V13.01,2013-07-13 04:37:00,
2013-07-12 23:42:00,69.3,59.5,30.07,NE,36,0.0,0.0,71,0.00,,SKC,0.00,VWS V13.01,2013-07-13 04:42:00,
2013-07-12 23:47:00,69.1,59.3,30.07,NE,36,0.0,0.0,71,0.00,,SKC,0.00,VWS V13.01,2013-07-13 04:47:00,
2013-07-12 23:52:00,69.0,59.2,30.07,NE,36,0.0,0.0,71,0.00,,SKC,0.00,VWS V13.01,2013-07-13 04:52:00,
2013-07-12 23:57:00,68.9,59.1,30.07,NE,36,0.0,0.0,71,0.00,,SKC,0.00,VWS V13.01,2013-07-13 04:57:00,